createdAt,value
2022-11-14T00:00:52.553Z,48.73
2022-11-14T00:03:38.896Z,49.37
2022-11-14T00:06:25.838Z,49.13
2022-11-14T00:09:12.053Z,50.73
2022-11-14T00:11:58.918Z,50.20
2022-11-14T00:14:45.449Z,50.67
2022-11-14T00:17:33.362Z,48.47
2022-11-14T00:20:19.717Z,48.13
2022-11-14T00:23:06.275Z,48.80
2022-11-14T00:25:52.316Z,51.00
2022-11-14T00:28:39.134Z,52.30
2022-11-14T00:31:25.574Z,49.13
2022-11-14T00:34:14.731Z,49.97
2022-11-14T00:37:01.108Z,49.23
2022-11-14T00:39:49.680Z,49.97
2022-11-14T00:42:36.119Z,49.10
2022-11-14T00:45:22.783Z,50.90
2022-11-14T00:48:09.247Z,49.73
2022-11-14T00:50:57.213Z,49.20
2022-11-14T00:53:43.236Z,50.87
2022-11-14T00:56:30.262Z,50.00
2022-11-14T00:59:16.503Z,50.30
2022-11-14T01:02:03.186Z,51.37
2022-11-14T01:04:49.690Z,51.53
2022-11-14T01:07:37.394Z,51.20
2022-11-14T01:10:23.732Z,52.50
2022-11-14T01:13:11.038Z,52.80
2022-11-14T01:16:01.149Z,51.87
2022-11-14T01:18:47.453Z,51.50
2022-11-14T01:21:33.511Z,52.23
2022-11-14T01:24:21.703Z,53.80
2022-11-14T01:27:08.244Z,53.87
2022-11-14T01:29:54.712Z,54.23
2022-11-14T01:32:40.927Z,52.70
2022-11-14T01:35:27.714Z,54.40
2022-11-14T01:38:14.729Z,54.60
2022-11-14T01:41:02.808Z,52.73
2022-11-14T01:43:49.430Z,54.67
2022-11-14T01:46:37.367Z,56.37
2022-11-14T01:49:25.310Z,57.07
2022-11-14T01:52:13.676Z,57.90
2022-11-14T01:55:01.094Z,55.23
2022-11-14T01:57:49.687Z,58.67
2022-11-14T02:00:36.481Z,58.17
2022-11-14T02:03:22.813Z,57.00
2022-11-14T02:06:12.007Z,55.90
2022-11-14T02:08:58.989Z,53.20
2022-11-14T02:11:47.231Z,57.57
2022-11-14T02:14:37.963Z,57.97
2022-11-14T02:17:30.192Z,56.20
2022-11-14T02:20:20.713Z,53.80
2022-11-14T02:23:07.622Z,55.37
2022-11-14T02:25:53.828Z,54.37
2022-11-14T02:28:40.535Z,53.50
2022-11-14T02:31:26.607Z,52.40
2022-11-14T02:34:13.165Z,54.40
2022-11-14T02:37:01.062Z,54.77
2022-11-14T02:39:48.316Z,53.13
2022-11-14T02:42:34.680Z,53.03
2022-11-14T02:45:21.674Z,52.30
2022-11-14T02:48:08.090Z,53.37
2022-11-14T02:50:54.983Z,54.53
2022-11-14T02:53:42.761Z,51.17
2022-11-14T02:56:30.448Z,51.00
2022-11-14T02:59:16.912Z,52.23
2022-11-14T03:02:03.217Z,51.60
2022-11-14T03:04:49.569Z,53.30
2022-11-14T03:07:36.500Z,53.00
2022-11-14T03:10:24.474Z,53.10
2022-11-14T03:13:11.109Z,54.00
2022-11-14T03:15:57.257Z,54.70
2022-11-14T03:18:44.138Z,52.10
2022-11-14T03:21:30.590Z,53.20
2022-11-14T03:24:17.181Z,52.70
2022-11-14T03:27:04.693Z,52.00
2022-11-14T03:29:51.213Z,50.27
2022-11-14T03:32:37.327Z,50.23
2022-11-14T03:35:23.986Z,50.10
2022-11-14T03:38:11.459Z,49.33
2022-11-14T03:40:58.698Z,52.03
2022-11-14T03:43:46.120Z,52.07
2022-11-14T03:46:32.507Z,50.23
2022-11-14T03:49:19.162Z,50.10
2022-11-14T03:52:05.254Z,52.13
2022-11-14T03:54:51.642Z,52.27
2022-11-14T03:57:37.786Z,51.30
2022-11-14T04:00:27.581Z,50.20
2022-11-14T04:03:13.830Z,49.70
2022-11-14T04:06:00.273Z,51.07
2022-11-14T04:08:46.630Z,51.13
2022-11-14T04:11:32.992Z,51.40
2022-11-14T04:14:19.852Z,50.63
2022-11-14T04:17:07.788Z,51.90
2022-11-14T04:19:54.065Z,50.80
2022-11-14T04:22:40.813Z,51.50
2022-11-14T04:25:27.053Z,53.20
2022-11-14T04:28:13.972Z,50.70
2022-11-14T04:31:01.331Z,51.10
2022-11-14T04:33:49.155Z,51.50
2022-11-14T04:36:35.395Z,54.53
2022-11-14T04:39:22.365Z,54.37
2022-11-14T04:42:08.963Z,52.70
2022-11-14T04:44:55.455Z,55.20
2022-11-14T04:47:42.682Z,54.80
2022-11-14T04:50:31.353Z,55.10
2022-11-14T04:53:17.597Z,54.20
2022-11-14T04:56:04.128Z,52.10
2022-11-14T04:58:50.477Z,54.97
2022-11-14T05:01:36.724Z,53.57
2022-11-14T05:04:22.928Z,53.97
2022-11-14T05:07:11.607Z,53.87
2022-11-14T05:09:57.962Z,53.47
2022-11-14T05:12:44.657Z,54.27
2022-11-14T05:15:31.823Z,56.50
2022-11-14T05:18:18.682Z,52.90
2022-11-14T05:21:05.115Z,54.93
2022-11-14T05:23:52.864Z,52.13
2022-11-14T05:26:39.630Z,55.20
2022-11-14T05:29:26.115Z,55.67
2022-11-14T05:32:16.260Z,54.03
2022-11-14T05:35:03.434Z,56.20
2022-11-14T05:37:49.502Z,54.20
2022-11-14T05:40:38.202Z,53.37
2022-11-14T05:43:24.845Z,55.93
2022-11-14T05:46:12.415Z,54.53
2022-11-14T05:48:58.370Z,54.60
2022-11-14T05:51:45.163Z,54.60
2022-11-14T05:54:31.720Z,55.17
2022-11-14T05:57:20.791Z,53.60
2022-11-14T06:00:08.187Z,52.40
2022-11-14T06:02:55.093Z,51.27
2022-11-14T06:05:41.745Z,54.67
2022-11-14T06:08:29.090Z,56.00
2022-11-14T06:11:16.968Z,54.10
2022-11-14T06:14:10.485Z,51.77
2022-11-14T06:16:57.517Z,51.83
2022-11-14T06:19:44.354Z,52.93
2022-11-14T06:22:30.533Z,51.07
2022-11-14T06:25:17.003Z,52.13
2022-11-14T06:28:03.160Z,52.97
2022-11-14T06:30:51.199Z,54.37
2022-11-14T06:33:37.926Z,53.60
2022-11-14T06:36:24.286Z,55.20
2022-11-14T06:39:11.124Z,53.53
2022-11-14T06:41:59.158Z,52.20
2022-11-14T06:44:45.281Z,55.97
2022-11-14T06:47:33.601Z,54.20
2022-11-14T06:50:20.074Z,53.80
2022-11-14T06:53:06.759Z,52.43
2022-11-14T06:55:54.786Z,52.70
2022-11-14T06:58:42.821Z,52.90
2022-11-14T07:01:29.476Z,52.77
2022-11-14T07:04:17.552Z,52.90
2022-11-14T07:07:04.156Z,53.07
2022-11-14T07:09:50.808Z,53.23
2022-11-14T07:12:36.736Z,56.00
2022-11-14T07:15:23.050Z,55.40
2022-11-14T07:18:09.109Z,52.37
2022-11-14T07:21:01.339Z,51.83
2022-11-14T07:23:47.813Z,49.80
2022-11-14T07:26:34.333Z,50.53
2022-11-14T07:29:20.774Z,49.27
2022-11-14T07:32:07.518Z,52.90
2022-11-14T07:34:56.776Z,52.30
2022-11-14T07:37:49.049Z,49.67
2022-11-14T07:40:35.495Z,50.30
2022-11-14T07:43:22.487Z,47.80
2022-11-14T07:46:09.586Z,47.90
2022-11-14T07:48:55.932Z,50.57
2022-11-14T07:51:41.987Z,49.17
2022-11-14T07:54:30.097Z,47.20
2022-11-14T07:57:16.199Z,47.00
2022-11-14T08:00:03.325Z,47.60
2022-11-14T08:02:49.795Z,46.13
2022-11-14T08:05:36.853Z,45.83
2022-11-14T08:08:23.282Z,46.37
2022-11-14T08:11:11.005Z,46.10
2022-11-14T08:13:57.708Z,46.13
2022-11-14T08:16:44.577Z,44.67
2022-11-14T08:19:30.836Z,47.70
2022-11-14T08:22:17.200Z,45.00
2022-11-14T08:25:03.527Z,43.40
2022-11-14T08:27:51.616Z,43.40
2022-11-14T08:30:37.678Z,42.83
2022-11-14T08:33:25.817Z,44.97
2022-11-14T08:36:12.017Z,43.97
2022-11-14T08:39:01.753Z,42.67
2022-11-14T08:41:49.025Z,43.73
2022-11-14T08:44:37.808Z,46.40
2022-11-14T08:47:23.750Z,43.67
2022-11-14T08:50:10.598Z,43.03
2022-11-14T08:52:56.876Z,41.80
2022-11-14T08:55:45.026Z,43.07
2022-11-14T08:58:32.332Z,41.00
2022-11-14T09:01:21.012Z,40.97
2022-11-14T09:04:08.580Z,41.50
2022-11-14T09:06:55.309Z,41.67
2022-11-14T09:09:41.765Z,41.37
2022-11-14T09:12:28.977Z,40.97
2022-11-14T09:15:15.052Z,39.63
2022-11-14T09:18:02.819Z,39.83
2022-11-14T09:20:49.320Z,41.37
2022-11-14T09:23:36.305Z,39.97
2022-11-14T09:26:22.710Z,39.40
2022-11-14T09:29:09.439Z,40.50
2022-11-14T09:31:56.782Z,38.20
2022-11-14T09:34:45.702Z,39.80
2022-11-14T09:37:32.201Z,37.93
2022-11-14T09:40:18.840Z,37.40
2022-11-14T09:43:11.850Z,38.30
2022-11-14T09:45:58.999Z,37.67
2022-11-14T09:48:45.564Z,36.20
2022-11-14T09:51:34.396Z,35.30
2022-11-14T09:54:23.349Z,37.33
2022-11-14T09:57:14.659Z,35.27
2022-11-14T10:00:01.090Z,35.83
2022-11-14T10:02:56.577Z,35.70
2022-11-14T10:05:55.591Z,35.27
2022-11-14T10:08:48.993Z,34.67
2022-11-14T10:11:39.502Z,33.03
2022-11-14T10:14:47.104Z,34.97
2022-11-14T10:17:41.953Z,33.77
2022-11-14T10:20:33.355Z,32.70
2022-11-14T10:23:24.970Z,34.80
2022-11-14T10:26:16.301Z,33.93
2022-11-14T10:29:21.099Z,34.67
2022-11-14T10:32:16.885Z,32.67
2022-11-14T10:35:04.763Z,33.07
2022-11-14T10:37:56.791Z,33.50
2022-11-14T10:40:45.316Z,32.57
2022-11-14T10:43:36.868Z,32.37
2022-11-14T10:46:29.489Z,31.07
2022-11-14T10:49:20.929Z,30.67
2022-11-14T10:52:08.548Z,33.00
2022-11-14T10:55:00.394Z,30.40
2022-11-14T10:57:46.890Z,29.33
2022-11-14T11:00:39.962Z,29.20
2022-11-14T11:03:41.493Z,29.53
2022-11-14T11:06:29.458Z,27.50
2022-11-14T11:09:34.834Z,26.67
2022-11-14T11:12:22.653Z,27.90
2022-11-14T11:15:14.337Z,28.73
2022-11-14T11:18:03.234Z,28.53
2022-11-14T11:21:02.298Z,27.97
2022-11-14T11:23:50.054Z,28.40
2022-11-14T11:26:36.352Z,27.83
2022-11-14T11:29:23.134Z,29.47
2022-11-14T11:32:09.661Z,27.90
2022-11-14T11:35:00.969Z,26.47
2022-11-14T11:37:49.585Z,29.77
2022-11-14T11:40:36.410Z,29.60
2022-11-14T11:43:42.852Z,26.80
2022-11-14T11:46:32.102Z,26.93
2022-11-14T11:49:20.232Z,29.13
2022-11-14T11:52:14.814Z,27.87
2022-11-14T11:55:02.503Z,28.50
2022-11-14T11:57:49.501Z,28.20
2022-11-14T12:00:35.913Z,28.53
2022-11-14T12:03:24.861Z,26.87
2022-11-14T12:06:14.879Z,28.30
2022-11-14T12:09:15.473Z,26.87
2022-11-14T12:12:03.392Z,27.60
2022-11-14T12:14:54.875Z,26.43
2022-11-14T12:17:53.953Z,25.17
2022-11-14T12:20:49.080Z,27.00
2022-11-14T12:23:45.951Z,24.83
2022-11-14T12:26:43.032Z,25.30
2022-11-14T12:29:47.688Z,24.00
2022-11-14T12:32:35.778Z,26.83
2022-11-14T12:35:24.043Z,24.20
2022-11-14T12:38:18.762Z,24.40
2022-11-14T12:41:07.506Z,25.10
2022-11-14T12:44:15.950Z,25.70
2022-11-14T12:47:21.836Z,25.00
2022-11-14T12:50:26.736Z,24.13
2022-11-14T12:53:35.996Z,24.00
2022-11-14T12:56:43.338Z,24.60
2022-11-14T12:59:34.338Z,26.00
2022-11-14T13:02:33.551Z,23.40
2022-11-14T13:05:36.203Z,23.00
2022-11-14T13:08:43.589Z,23.80
2022-11-14T13:11:54.423Z,22.17
2022-11-14T13:15:21.516Z,24.03
2022-11-14T13:18:32.683Z,23.97
2022-11-14T13:21:45.387Z,23.47
2022-11-14T13:24:48.486Z,22.37
2022-11-14T13:28:05.167Z,22.53
2022-11-14T13:31:01.763Z,23.00
2022-11-14T13:33:50.663Z,25.80
2022-11-14T13:36:42.452Z,23.73
2022-11-14T13:39:34.795Z,24.10
2022-11-14T13:42:25.871Z,24.30
2022-11-14T13:45:37.113Z,24.47
2022-11-14T13:48:51.908Z,22.20
2022-11-14T13:51:44.210Z,23.50
2022-11-14T13:54:30.932Z,23.20
2022-11-14T13:57:23.233Z,22.40
2022-11-14T14:00:18.460Z,22.00
2022-11-14T14:03:16.308Z,22.40
2022-11-14T14:06:08.838Z,22.20
2022-11-14T14:09:04.273Z,22.87
2022-11-14T14:11:56.545Z,22.63
2022-11-14T14:14:49.875Z,22.60
2022-11-14T14:17:45.039Z,24.20
2022-11-14T14:20:36.250Z,21.87
2022-11-14T14:23:28.537Z,21.57
2022-11-14T14:26:22.109Z,21.83
2022-11-14T14:29:14.909Z,21.73
2022-11-14T14:32:07.173Z,22.73
2022-11-14T14:34:56.949Z,23.47
2022-11-14T14:37:50.821Z,21.73
2022-11-14T14:40:39.066Z,23.07
2022-11-14T14:43:29.721Z,23.10
2022-11-14T14:46:16.829Z,22.73
2022-11-14T14:49:04.408Z,21.73
2022-11-14T14:51:55.728Z,22.20
2022-11-14T14:54:54.566Z,26.27
2022-11-14T14:57:41.326Z,25.10
2022-11-14T15:00:29.679Z,24.50
2022-11-14T15:03:16.378Z,23.83
2022-11-14T15:06:04.363Z,25.50
2022-11-14T15:08:50.996Z,23.70
2022-11-14T15:11:40.806Z,26.97
2022-11-14T15:14:28.581Z,26.63
2022-11-14T15:17:16.501Z,26.10
2022-11-14T15:20:02.692Z,25.10
2022-11-14T15:23:03.261Z,28.43
2022-11-14T15:25:49.624Z,27.10
2022-11-14T15:28:35.959Z,26.87
2022-11-14T15:31:24.609Z,26.27
2022-11-14T15:34:23.644Z,26.13
2022-11-14T15:37:23.954Z,27.47
2022-11-14T15:40:20.042Z,29.00
2022-11-14T15:43:24.943Z,28.43
2022-11-14T15:46:25.782Z,30.17
2022-11-14T15:49:20.055Z,30.97
2022-11-14T15:52:19.209Z,29.70
2022-11-14T15:55:13.017Z,33.50
2022-11-14T15:58:21.388Z,33.47
2022-11-14T16:01:05.847Z,32.33
2022-11-14T16:03:51.926Z,30.70
2022-11-14T16:06:38.356Z,31.27
2022-11-14T16:09:26.243Z,32.50
2022-11-14T16:12:13.070Z,30.73
2022-11-14T16:14:59.447Z,33.10
2022-11-14T16:17:46.537Z,32.20
2022-11-14T16:20:37.141Z,31.60
2022-11-14T16:23:24.347Z,32.37
2022-11-14T16:26:12.121Z,32.50
2022-11-14T16:28:59.012Z,32.90
2022-11-14T16:31:45.677Z,32.40
2022-11-14T16:34:31.988Z,30.00
2022-11-14T16:37:18.188Z,30.40
2022-11-14T16:40:04.942Z,31.43
2022-11-14T16:42:54.988Z,30.83
2022-11-14T16:45:41.958Z,29.80
2022-11-14T16:48:28.050Z,31.47
2022-11-14T16:51:46.089Z,30.60
2022-11-14T16:54:22.425Z,30.90
2022-11-14T16:57:09.291Z,33.37
2022-11-14T16:59:58.071Z,32.33
2022-11-14T17:02:45.908Z,30.57
2022-11-14T17:05:32.147Z,32.90
2022-11-14T17:08:19.402Z,30.50
2022-11-14T17:11:08.893Z,30.30
2022-11-14T17:13:55.767Z,31.00
2022-11-14T17:16:43.195Z,32.30
2022-11-14T17:19:30.877Z,32.50
2022-11-14T17:22:18.393Z,32.17
2022-11-14T17:25:05.633Z,33.80
2022-11-14T17:27:52.440Z,32.60
2022-11-14T17:30:41.268Z,31.73
2022-11-14T17:33:29.343Z,32.70
2022-11-14T17:36:16.528Z,32.60
2022-11-14T17:39:02.912Z,33.30
2022-11-14T17:41:49.481Z,33.97
2022-11-14T17:44:36.450Z,35.90
2022-11-14T17:47:23.068Z,36.60
2022-11-14T17:50:11.139Z,38.03
2022-11-14T17:52:58.114Z,37.60
2022-11-14T17:55:44.585Z,34.43
2022-11-14T17:58:32.473Z,34.23
2022-11-14T18:01:20.704Z,33.20
2022-11-14T18:04:07.571Z,32.93
2022-11-14T18:06:55.786Z,32.83
2022-11-14T18:09:42.835Z,33.53
2022-11-14T18:12:29.287Z,31.83
2022-11-14T18:15:16.017Z,32.90
2022-11-14T18:18:02.342Z,31.00
2022-11-14T18:20:48.648Z,32.43
2022-11-14T18:23:38.676Z,32.93
2022-11-14T18:26:28.017Z,31.70
2022-11-14T18:29:15.606Z,32.37
2022-11-14T18:32:02.137Z,32.10
2022-11-14T18:34:48.520Z,32.00
2022-11-14T18:37:35.112Z,31.13
2022-11-14T18:40:22.769Z,41.50
2022-11-14T18:43:09.740Z,30.80
2022-11-14T18:45:56.387Z,31.30
2022-11-14T18:48:43.995Z,31.33
2022-11-14T18:51:31.282Z,30.20
2022-11-14T18:54:21.315Z,30.90
2022-11-14T18:57:08.867Z,33.63
2022-11-14T18:59:55.277Z,37.87
2022-11-14T19:02:41.375Z,31.70
2022-11-14T19:05:27.858Z,34.20
2022-11-14T19:08:14.088Z,31.60
2022-11-14T19:11:03.672Z,32.73
2022-11-14T19:13:50.928Z,31.70
2022-11-14T19:16:38.670Z,30.83
2022-11-14T19:19:24.832Z,31.47
2022-11-14T19:22:11.465Z,31.33
2022-11-14T19:24:58.987Z,31.30
2022-11-14T19:27:50.555Z,31.67
2022-11-14T19:30:38.212Z,32.77
2022-11-14T19:33:24.596Z,31.90
2022-11-14T19:36:12.594Z,32.97
2022-11-14T19:38:59.738Z,31.53
2022-11-14T19:41:45.987Z,34.03
2022-11-14T19:44:33.161Z,32.90
2022-11-14T19:47:21.245Z,33.77
2022-11-14T19:50:07.961Z,34.70
2022-11-14T19:52:54.090Z,32.50
2022-11-14T19:55:41.009Z,33.00
2022-11-14T19:58:28.295Z,31.63
2022-11-14T20:01:17.177Z,31.50
2022-11-14T20:04:07.291Z,34.47
2022-11-14T20:06:53.823Z,32.47
2022-11-14T20:09:40.755Z,33.07
2022-11-14T20:12:27.422Z,31.20
2022-11-14T20:15:14.102Z,33.27
2022-11-14T20:18:00.874Z,32.43
2022-11-14T20:20:49.243Z,33.73
2022-11-14T20:23:36.610Z,32.23
2022-11-14T20:26:24.034Z,32.30
2022-11-14T20:29:11.087Z,32.77
2022-11-14T20:31:57.289Z,33.30
2022-11-14T20:34:44.252Z,33.40
2022-11-14T20:37:32.152Z,33.87
2022-11-14T20:40:21.408Z,32.70
2022-11-14T20:43:08.266Z,33.13
2022-11-14T20:45:58.636Z,32.83
2022-11-14T20:48:46.121Z,32.10
2022-11-14T20:51:32.217Z,34.10
2022-11-14T20:54:20.193Z,31.37
2022-11-14T20:57:08.557Z,35.00
2022-11-14T20:59:54.936Z,35.10
2022-11-14T21:02:41.399Z,37.53
2022-11-14T21:05:27.974Z,33.07
2022-11-14T21:08:14.335Z,35.33
2022-11-14T21:11:03.329Z,36.23
2022-11-14T21:13:58.860Z,37.43
2022-11-14T21:16:45.359Z,35.07
2022-11-14T21:19:32.304Z,35.77
2022-11-14T21:22:18.872Z,38.53
2022-11-14T21:25:05.548Z,38.90
2022-11-14T21:27:53.516Z,37.63
2022-11-14T21:30:40.113Z,36.87
2022-11-14T21:33:26.832Z,36.93
2022-11-14T21:36:43.298Z,36.63
2022-11-14T21:39:20.675Z,37.37
2022-11-14T21:42:07.090Z,36.47
2022-11-14T21:44:54.972Z,38.67
2022-11-14T21:47:41.517Z,38.27
2022-11-14T21:50:29.561Z,38.80
2022-11-14T21:53:16.757Z,38.90
2022-11-14T21:56:10.171Z,40.00
2022-11-14T21:59:11.386Z,39.83
2022-11-14T22:02:17.326Z,39.10
2022-11-14T22:05:03.904Z,41.03
2022-11-14T22:07:50.216Z,42.03
2022-11-14T22:10:36.541Z,41.73
2022-11-14T22:13:23.576Z,41.57
2022-11-14T22:16:11.093Z,41.00
2022-11-14T22:19:04.762Z,39.57
2022-11-14T22:21:52.235Z,40.50
2022-11-14T22:24:39.220Z,41.50
2022-11-14T22:27:25.391Z,41.80
2022-11-14T22:30:12.518Z,44.67
2022-11-14T22:32:59.756Z,45.27
2022-11-14T22:35:47.516Z,43.13
2022-11-14T22:38:35.608Z,42.90
2022-11-14T22:41:28.987Z,41.80
2022-11-14T22:44:18.100Z,42.57
2022-11-14T22:47:04.677Z,45.17
2022-11-14T22:49:51.372Z,42.90
2022-11-14T22:52:39.569Z,43.17
2022-11-14T22:55:25.952Z,43.70
2022-11-14T22:58:13.276Z,46.20
2022-11-14T23:00:59.812Z,44.43
2022-11-14T23:03:53.824Z,45.03
2022-11-14T23:06:40.632Z,45.10
2022-11-14T23:09:29.985Z,47.87
2022-11-14T23:12:16.115Z,44.53
2022-11-14T23:15:02.914Z,43.77
2022-11-14T23:17:49.350Z,46.00
2022-11-14T23:20:37.074Z,45.50
2022-11-14T23:23:23.389Z,48.13
2022-11-14T23:26:12.896Z,46.40
2022-11-14T23:28:59.716Z,45.53
2022-11-14T23:31:45.979Z,47.47
2022-11-14T23:34:32.709Z,52.70
2022-11-14T23:37:18.927Z,49.03
2022-11-14T23:40:05.616Z,46.83
2022-11-14T23:42:53.309Z,46.07
2022-11-14T23:45:43.376Z,52.43
2022-11-14T23:48:29.657Z,48.80
2022-11-14T23:51:17.628Z,49.13
2022-11-14T23:54:03.746Z,45.80
2022-11-14T23:56:50.998Z,48.37
2022-11-14T23:59:39.013Z,47.10
